sensor_id;sensor_type;location;lat;lon;timestamp;temperature;humidity
12408;DHT22;6268;48.188;17.134;2023-05-20T00:02:16;14.20;99.90
12408;DHT22;6268;48.188;17.134;2023-05-20T00:05:37;14.10;99.90
12408;DHT22;6268;48.188;17.134;2023-05-20T00:08:59;14.10;99.90
12408;DHT22;6268;48.188;17.134;2023-05-20T00:12:21;14.00;99.90
12408;DHT22;6268;48.188;17.134;2023-05-20T00:15:42;14.10;99.90
12408;DHT22;6268;48.188;17.134;2023-05-20T00:19:06;14.10;99.90
12408;DHT22;6268;48.188;17.134;2023-05-20T00:26:07;14.00;99.90
12408;DHT22;6268;48.188;17.134;2023-05-20T00:29:29;13.90;99.90
12408;DHT22;6268;48.188;17.134;2023-05-20T00:32:50;13.90;99.90
12408;DHT22;6268;48.188;17.134;2023-05-20T00:36:13;14.00;99.90
12408;DHT22;6268;48.188;17.134;2023-05-20T00:39:34;13.90;99.90
12408;DHT22;6268;48.188;17.134;2023-05-20T00:42:56;14.00;99.90
12408;DHT22;6268;48.188;17.134;2023-05-20T00:46:20;13.80;99.90
12408;DHT22;6268;48.188;17.134;2023-05-20T00:49:44;13.80;99.90
12408;DHT22;6268;48.188;17.134;2023-05-20T00:53:08;13.70;99.90
12408;DHT22;6268;48.188;17.134;2023-05-20T00:56:30;13.70;99.90
12408;DHT22;6268;48.188;17.134;2023-05-20T00:59:52;13.70;99.90
12408;DHT22;6268;48.188;17.134;2023-05-20T01:03:14;13.70;99.90
12408;DHT22;6268;48.188;17.134;2023-05-20T01:06:36;13.70;99.90
12408;DHT22;6268;48.188;17.134;2023-05-20T01:09:59;13.70;99.90
12408;DHT22;6268;48.188;17.134;2023-05-20T01:13:27;13.70;99.90
12408;DHT22;6268;48.188;17.134;2023-05-20T01:16:53;13.60;99.90
12408;DHT22;6268;48.188;17.134;2023-05-20T01:20:17;13.50;99.90
12408;DHT22;6268;48.188;17.134;2023-05-20T01:23:42;13.60;99.90
12408;DHT22;6268;48.188;17.134;2023-05-20T01:27:04;13.60;99.90
12408;DHT22;6268;48.188;17.134;2023-05-20T01:30:27;13.70;99.90
12408;DHT22;6268;48.188;17.134;2023-05-20T01:33:55;13.70;99.90
12408;DHT22;6268;48.188;17.134;2023-05-20T01:37:18;13.60;99.90
12408;DHT22;6268;48.188;17.134;2023-05-20T01:40:42;13.50;99.90
12408;DHT22;6268;48.188;17.134;2023-05-20T01:44:05;13.40;99.90
12408;DHT22;6268;48.188;17.134;2023-05-20T01:47:26;13.30;99.90
12408;DHT22;6268;48.188;17.134;2023-05-20T01:50:42;13.40;99.90
12408;DHT22;6268;48.188;17.134;2023-05-20T01:54:04;13.30;99.90
12408;DHT22;6268;48.188;17.134;2023-05-20T01:57:26;13.30;99.90
12408;DHT22;6268;48.188;17.134;2023-05-20T02:00:48;13.30;99.90
12408;DHT22;6268;48.188;17.134;2023-05-20T02:04:09;13.20;99.90
12408;DHT22;6268;48.188;17.134;2023-05-20T02:07:31;13.20;99.90
12408;DHT22;6268;48.188;17.134;2023-05-20T02:10:52;13.20;99.90
12408;DHT22;6268;48.188;17.134;2023-05-20T02:14:15;13.20;99.90
12408;DHT22;6268;48.188;17.134;2023-05-20T02:17:36;13.10;99.90
12408;DHT22;6268;48.188;17.134;2023-05-20T02:21:01;13.10;99.90
12408;DHT22;6268;48.188;17.134;2023-05-20T02:24:22;13.10;99.90
12408;DHT22;6268;48.188;17.134;2023-05-20T02:27:43;13.20;99.90
12408;DHT22;6268;48.188;17.134;2023-05-20T02:31:08;13.20;99.90
12408;DHT22;6268;48.188;17.134;2023-05-20T02:34:29;13.20;99.90
12408;DHT22;6268;48.188;17.134;2023-05-20T02:37:51;13.20;99.90
12408;DHT22;6268;48.188;17.134;2023-05-20T02:41:12;13.20;99.90
12408;DHT22;6268;48.188;17.134;2023-05-20T02:44:33;13.40;99.90
12408;DHT22;6268;48.188;17.134;2023-05-20T02:47:56;13.50;99.90
12408;DHT22;6268;48.188;17.134;2023-05-20T02:51:17;13.60;99.90
12408;DHT22;6268;48.188;17.134;2023-05-20T02:54:39;13.50;99.90
12408;DHT22;6268;48.188;17.134;2023-05-20T02:58:01;13.40;99.90
12408;DHT22;6268;48.188;17.134;2023-05-20T03:01:23;13.30;99.90
12408;DHT22;6268;48.188;17.134;2023-05-20T03:04:45;13.30;99.90
12408;DHT22;6268;48.188;17.134;2023-05-20T03:08:12;13.20;99.90
12408;DHT22;6268;48.188;17.134;2023-05-20T03:11:33;13.20;99.90
12408;DHT22;6268;48.188;17.134;2023-05-20T03:14:52;13.30;99.90
12408;DHT22;6268;48.188;17.134;2023-05-20T03:18:14;13.40;99.90
12408;DHT22;6268;48.188;17.134;2023-05-20T03:21:36;13.40;99.90
12408;DHT22;6268;48.188;17.134;2023-05-20T03:24:58;13.40;99.90
12408;DHT22;6268;48.188;17.134;2023-05-20T03:28:19;13.50;99.90
12408;DHT22;6268;48.188;17.134;2023-05-20T03:31:40;13.50;99.90
12408;DHT22;6268;48.188;17.134;2023-05-20T03:35:02;13.60;99.90
12408;DHT22;6268;48.188;17.134;2023-05-20T03:38:23;13.60;99.90
12408;DHT22;6268;48.188;17.134;2023-05-20T03:41:45;13.70;99.90
12408;DHT22;6268;48.188;17.134;2023-05-20T03:45:07;13.60;99.90
12408;DHT22;6268;48.188;17.134;2023-05-20T03:48:28;13.60;99.90
12408;DHT22;6268;48.188;17.134;2023-05-20T03:51:49;13.60;99.90
12408;DHT22;6268;48.188;17.134;2023-05-20T03:55:12;13.60;99.90
12408;DHT22;6268;48.188;17.134;2023-05-20T03:58:33;13.70;99.90
12408;DHT22;6268;48.188;17.134;2023-05-20T04:01:54;13.80;99.90
12408;DHT22;6268;48.188;17.134;2023-05-20T04:05:16;13.70;99.90
12408;DHT22;6268;48.188;17.134;2023-05-20T04:08:37;13.80;99.90
12408;DHT22;6268;48.188;17.134;2023-05-20T04:12:00;14.00;99.90
12408;DHT22;6268;48.188;17.134;2023-05-20T04:15:20;14.30;99.90
12408;DHT22;6268;48.188;17.134;2023-05-20T04:18:42;14.60;99.90
12408;DHT22;6268;48.188;17.134;2023-05-20T04:22:04;14.70;99.90
12408;DHT22;6268;48.188;17.134;2023-05-20T04:25:26;14.80;99.90
12408;DHT22;6268;48.188;17.134;2023-05-20T04:28:50;14.70;99.90
12408;DHT22;6268;48.188;17.134;2023-05-20T04:32:13;14.80;99.90
12408;DHT22;6268;48.188;17.134;2023-05-20T04:35:37;15.10;99.90
12408;DHT22;6268;48.188;17.134;2023-05-20T04:39:00;15.30;99.90
12408;DHT22;6268;48.188;17.134;2023-05-20T04:42:21;15.70;99.90
12408;DHT22;6268;48.188;17.134;2023-05-20T04:45:44;16.30;99.90
12408;DHT22;6268;48.188;17.134;2023-05-20T04:49:06;16.70;99.90
12408;DHT22;6268;48.188;17.134;2023-05-20T04:52:27;17.00;99.90
12408;DHT22;6268;48.188;17.134;2023-05-20T04:55:49;17.50;99.90
12408;DHT22;6268;48.188;17.134;2023-05-20T04:59:10;18.10;99.90
12408;DHT22;6268;48.188;17.134;2023-05-20T05:02:35;18.40;99.90
12408;DHT22;6268;48.188;17.134;2023-05-20T05:05:57;19.10;99.90
12408;DHT22;6268;48.188;17.134;2023-05-20T05:09:18;19.70;99.90
12408;DHT22;6268;48.188;17.134;2023-05-20T05:12:41;20.50;99.90
12408;DHT22;6268;48.188;17.134;2023-05-20T05:16:06;20.70;99.90
12408;DHT22;6268;48.188;17.134;2023-05-20T05:19:22;21.00;99.90
12408;DHT22;6268;48.188;17.134;2023-05-20T05:22:43;21.60;99.90
12408;DHT22;6268;48.188;17.134;2023-05-20T05:26:05;22.20;99.90
12408;DHT22;6268;48.188;17.134;2023-05-20T05:29:26;23.00;99.90
12408;DHT22;6268;48.188;17.134;2023-05-20T05:32:48;23.30;99.90
12408;DHT22;6268;48.188;17.134;2023-05-20T05:36:11;23.40;99.90
12408;DHT22;6268;48.188;17.134;2023-05-20T05:39:32;23.60;99.90
12408;DHT22;6268;48.188;17.134;2023-05-20T05:42:54;23.70;99.90
12408;DHT22;6268;48.188;17.134;2023-05-20T05:46:15;23.80;99.90
12408;DHT22;6268;48.188;17.134;2023-05-20T05:49:36;24.70;99.90
12408;DHT22;6268;48.188;17.134;2023-05-20T05:52:59;25.10;99.90
12408;DHT22;6268;48.188;17.134;2023-05-20T05:56:20;25.30;99.90
12408;DHT22;6268;48.188;17.134;2023-05-20T05:59:42;25.30;99.90
12408;DHT22;6268;48.188;17.134;2023-05-20T06:03:03;25.90;99.90
12408;DHT22;6268;48.188;17.134;2023-05-20T06:06:25;25.50;99.90
12408;DHT22;6268;48.188;17.134;2023-05-20T06:09:48;25.30;99.90
12408;DHT22;6268;48.188;17.134;2023-05-20T06:13:14;24.80;99.90
12408;DHT22;6268;48.188;17.134;2023-05-20T06:16:35;24.30;99.90
12408;DHT22;6268;48.188;17.134;2023-05-20T06:19:56;24.10;99.90
12408;DHT22;6268;48.188;17.134;2023-05-20T06:23:22;24.20;99.90
12408;DHT22;6268;48.188;17.134;2023-05-20T06:26:33;24.90;99.90
12408;DHT22;6268;48.188;17.134;2023-05-20T06:29:54;24.40;99.90
12408;DHT22;6268;48.188;17.134;2023-05-20T06:33:16;23.60;99.90
12408;DHT22;6268;48.188;17.134;2023-05-20T06:36:35;24.80;99.90
12408;DHT22;6268;48.188;17.134;2023-05-20T06:39:56;25.90;99.90
12408;DHT22;6268;48.188;17.134;2023-05-20T06:43:19;25.20;99.90
12408;DHT22;6268;48.188;17.134;2023-05-20T06:46:40;25.50;99.90
12408;DHT22;6268;48.188;17.134;2023-05-20T06:50:04;25.90;99.90
12408;DHT22;6268;48.188;17.134;2023-05-20T06:53:26;26.50;98.80
12408;DHT22;6268;48.188;17.134;2023-05-20T06:56:48;27.00;95.10
12408;DHT22;6268;48.188;17.134;2023-05-20T07:00:12;27.20;93.50
12408;DHT22;6268;48.188;17.134;2023-05-20T07:03:33;26.70;94.30
12408;DHT22;6268;48.188;17.134;2023-05-20T07:06:54;26.30;97.50
12408;DHT22;6268;48.188;17.134;2023-05-20T07:10:16;25.70;99.30
12408;DHT22;6268;48.188;17.134;2023-05-20T07:13:37;25.20;99.90
12408;DHT22;6268;48.188;17.134;2023-05-20T07:17:00;25.60;99.90
12408;DHT22;6268;48.188;17.134;2023-05-20T07:20:21;25.70;99.90
12408;DHT22;6268;48.188;17.134;2023-05-20T07:23:42;24.00;99.90
12408;DHT22;6268;48.188;17.134;2023-05-20T07:27:04;24.30;99.90
12408;DHT22;6268;48.188;17.134;2023-05-20T07:30:27;24.50;99.90
12408;DHT22;6268;48.188;17.134;2023-05-20T07:33:49;24.30;99.90
12408;DHT22;6268;48.188;17.134;2023-05-20T07:37:11;24.60;99.90
12408;DHT22;6268;48.188;17.134;2023-05-20T07:40:32;24.20;99.90
12408;DHT22;6268;48.188;17.134;2023-05-20T07:43:53;25.00;99.90
12408;DHT22;6268;48.188;17.134;2023-05-20T07:47:14;24.60;99.90
12408;DHT22;6268;48.188;17.134;2023-05-20T07:50:38;24.50;99.90
12408;DHT22;6268;48.188;17.134;2023-05-20T07:53:59;24.90;99.90
12408;DHT22;6268;48.188;17.134;2023-05-20T07:57:21;25.10;99.90
12408;DHT22;6268;48.188;17.134;2023-05-20T08:00:43;26.30;99.90
12408;DHT22;6268;48.188;17.134;2023-05-20T08:04:04;27.10;99.00
12408;DHT22;6268;48.188;17.134;2023-05-20T08:07:27;26.60;97.40
12408;DHT22;6268;48.188;17.134;2023-05-20T08:10:49;26.90;99.00
12408;DHT22;6268;48.188;17.134;2023-05-20T08:14:13;27.60;93.80
12408;DHT22;6268;48.188;17.134;2023-05-20T08:17:35;27.40;95.80
12408;DHT22;6268;48.188;17.134;2023-05-20T08:20:56;27.10;94.30
12408;DHT22;6268;48.188;17.134;2023-05-20T08:24:19;26.20;97.90
12408;DHT22;6268;48.188;17.134;2023-05-20T08:27:42;26.20;98.60
12408;DHT22;6268;48.188;17.134;2023-05-20T08:31:04;26.70;99.60
12408;DHT22;6268;48.188;17.134;2023-05-20T08:34:20;27.00;98.80
12408;DHT22;6268;48.188;17.134;2023-05-20T08:37:42;27.90;92.80
12408;DHT22;6268;48.188;17.134;2023-05-20T08:41:05;26.90;96.10
12408;DHT22;6268;48.188;17.134;2023-05-20T08:44:27;26.60;98.30
12408;DHT22;6268;48.188;17.134;2023-05-20T08:47:55;26.70;95.10
12408;DHT22;6268;48.188;17.134;2023-05-20T08:51:20;26.10;98.10
12408;DHT22;6268;48.188;17.134;2023-05-20T08:54:43;26.10;99.50
12408;DHT22;6268;48.188;17.134;2023-05-20T08:58:10;25.80;99.90
12408;DHT22;6268;48.188;17.134;2023-05-20T09:01:36;24.90;99.90
12408;DHT22;6268;48.188;17.134;2023-05-20T09:04:58;25.30;99.90
12408;DHT22;6268;48.188;17.134;2023-05-20T09:08:23;25.60;99.90
12408;DHT22;6268;48.188;17.134;2023-05-20T09:11:45;25.40;99.90
12408;DHT22;6268;48.188;17.134;2023-05-20T09:15:08;26.50;99.10
12408;DHT22;6268;48.188;17.134;2023-05-20T09:18:30;26.50;96.30
12408;DHT22;6268;48.188;17.134;2023-05-20T09:21:53;26.00;99.80
12408;DHT22;6268;48.188;17.134;2023-05-20T09:25:19;26.50;99.90
12408;DHT22;6268;48.188;17.134;2023-05-20T09:28:40;27.30;98.30
12408;DHT22;6268;48.188;17.134;2023-05-20T09:32:04;26.80;96.00
12408;DHT22;6268;48.188;17.134;2023-05-20T09:35:27;27.00;96.60
12408;DHT22;6268;48.188;17.134;2023-05-20T09:38:51;27.30;95.80
12408;DHT22;6268;48.188;17.134;2023-05-20T09:42:20;26.90;96.80
12408;DHT22;6268;48.188;17.134;2023-05-20T09:45:43;26.10;99.60
12408;DHT22;6268;48.188;17.134;2023-05-20T09:49:07;25.70;99.90
12408;DHT22;6268;48.188;17.134;2023-05-20T09:52:30;25.70;99.90
12408;DHT22;6268;48.188;17.134;2023-05-20T09:55:54;25.90;99.90
12408;DHT22;6268;48.188;17.134;2023-05-20T09:59:17;25.90;99.90
12408;DHT22;6268;48.188;17.134;2023-05-20T10:02:44;25.00;99.90
12408;DHT22;6268;48.188;17.134;2023-05-20T10:06:44;25.60;99.90
12408;DHT22;6268;48.188;17.134;2023-05-20T10:10:36;25.90;99.90
12408;DHT22;6268;48.188;17.134;2023-05-20T10:14:25;25.40;99.90
12408;DHT22;6268;48.188;17.134;2023-05-20T10:17:58;25.30;99.90
12408;DHT22;6268;48.188;17.134;2023-05-20T10:21:25;25.50;99.90
12408;DHT22;6268;48.188;17.134;2023-05-20T10:24:58;25.60;99.90
12408;DHT22;6268;48.188;17.134;2023-05-20T10:28:31;24.80;99.90
12408;DHT22;6268;48.188;17.134;2023-05-20T10:31:54;24.50;99.90
12408;DHT22;6268;48.188;17.134;2023-05-20T10:35:24;25.10;99.90
12408;DHT22;6268;48.188;17.134;2023-05-20T10:38:55;25.30;99.90
12408;DHT22;6268;48.188;17.134;2023-05-20T10:42:27;25.10;99.90
12408;DHT22;6268;48.188;17.134;2023-05-20T10:45:54;25.40;99.90
12408;DHT22;6268;48.188;17.134;2023-05-20T10:49:48;25.20;99.90
12408;DHT22;6268;48.188;17.134;2023-05-20T10:53:12;24.40;99.90
12408;DHT22;6268;48.188;17.134;2023-05-20T10:56:37;24.60;99.90
12408;DHT22;6268;48.188;17.134;2023-05-20T10:59:59;24.80;99.90
12408;DHT22;6268;48.188;17.134;2023-05-20T11:03:21;24.90;99.90
12408;DHT22;6268;48.188;17.134;2023-05-20T11:06:49;25.00;99.90
12408;DHT22;6268;48.188;17.134;2023-05-20T11:10:12;24.90;99.90
12408;DHT22;6268;48.188;17.134;2023-05-20T11:13:34;25.10;99.90
12408;DHT22;6268;48.188;17.134;2023-05-20T11:16:57;25.00;99.90
12408;DHT22;6268;48.188;17.134;2023-05-20T11:20:19;25.20;99.90
12408;DHT22;6268;48.188;17.134;2023-05-20T11:23:41;24.60;99.90
12408;DHT22;6268;48.188;17.134;2023-05-20T11:27:05;24.90;99.90
12408;DHT22;6268;48.188;17.134;2023-05-20T11:30:27;24.80;99.90
12408;DHT22;6268;48.188;17.134;2023-05-20T11:33:51;24.60;99.90
12408;DHT22;6268;48.188;17.134;2023-05-20T11:37:12;24.40;99.90
12408;DHT22;6268;48.188;17.134;2023-05-20T11:40:35;24.40;99.90
12408;DHT22;6268;48.188;17.134;2023-05-20T11:43:58;24.50;99.90
12408;DHT22;6268;48.188;17.134;2023-05-20T11:47:24;24.60;99.90
12408;DHT22;6268;48.188;17.134;2023-05-20T11:50:47;24.60;99.90
12408;DHT22;6268;48.188;17.134;2023-05-20T11:54:10;24.30;99.90
12408;DHT22;6268;48.188;17.134;2023-05-20T11:57:32;24.30;99.90
12408;DHT22;6268;48.188;17.134;2023-05-20T12:00:56;24.10;99.90
12408;DHT22;6268;48.188;17.134;2023-05-20T12:04:17;24.00;99.90
12408;DHT22;6268;48.188;17.134;2023-05-20T12:07:39;24.20;99.90
12408;DHT22;6268;48.188;17.134;2023-05-20T12:11:00;24.20;99.90
12408;DHT22;6268;48.188;17.134;2023-05-20T12:14:22;24.20;99.90
12408;DHT22;6268;48.188;17.134;2023-05-20T12:17:47;24.30;99.90
12408;DHT22;6268;48.188;17.134;2023-05-20T12:21:08;24.20;99.90
12408;DHT22;6268;48.188;17.134;2023-05-20T12:24:30;24.30;99.90
12408;DHT22;6268;48.188;17.134;2023-05-20T12:27:51;24.30;99.90
12408;DHT22;6268;48.188;17.134;2023-05-20T12:31:12;24.30;99.90
12408;DHT22;6268;48.188;17.134;2023-05-20T12:34:36;24.30;99.90
12408;DHT22;6268;48.188;17.134;2023-05-20T12:38:04;24.60;99.90
12408;DHT22;6268;48.188;17.134;2023-05-20T12:41:25;24.40;99.90
12408;DHT22;6268;48.188;17.134;2023-05-20T12:44:47;24.30;99.90
12408;DHT22;6268;48.188;17.134;2023-05-20T12:48:08;24.30;99.90
12408;DHT22;6268;48.188;17.134;2023-05-20T12:51:31;24.30;99.90
12408;DHT22;6268;48.188;17.134;2023-05-20T12:54:53;24.30;99.90
12408;DHT22;6268;48.188;17.134;2023-05-20T12:58:15;24.30;99.90
12408;DHT22;6268;48.188;17.134;2023-05-20T13:01:36;24.40;99.90
12408;DHT22;6268;48.188;17.134;2023-05-20T13:04:57;24.50;99.90
12408;DHT22;6268;48.188;17.134;2023-05-20T13:08:20;24.50;99.90
12408;DHT22;6268;48.188;17.134;2023-05-20T13:11:41;24.60;99.90
12408;DHT22;6268;48.188;17.134;2023-05-20T13:15:04;24.50;99.70
12408;DHT22;6268;48.188;17.134;2023-05-20T13:18:26;24.60;99.90
12408;DHT22;6268;48.188;17.134;2023-05-20T13:21:48;24.40;99.90
12408;DHT22;6268;48.188;17.134;2023-05-20T13:25:11;24.40;99.90
12408;DHT22;6268;48.188;17.134;2023-05-20T13:28:32;24.40;99.90
12408;DHT22;6268;48.188;17.134;2023-05-20T13:31:54;24.40;99.90
12408;DHT22;6268;48.188;17.134;2023-05-20T13:35:15;24.50;99.90
12408;DHT22;6268;48.188;17.134;2023-05-20T13:38:37;24.50;99.90
12408;DHT22;6268;48.188;17.134;2023-05-20T13:42:00;24.40;99.90
12408;DHT22;6268;48.188;17.134;2023-05-20T13:45:21;24.40;99.90
12408;DHT22;6268;48.188;17.134;2023-05-20T13:48:43;24.50;99.90
12408;DHT22;6268;48.188;17.134;2023-05-20T13:52:05;24.60;99.90
12408;DHT22;6268;48.188;17.134;2023-05-20T13:55:26;24.40;99.90
12408;DHT22;6268;48.188;17.134;2023-05-20T13:58:49;24.50;99.90
12408;DHT22;6268;48.188;17.134;2023-05-20T14:02:10;24.50;99.90
12408;DHT22;6268;48.188;17.134;2023-05-20T14:05:35;24.50;99.90
12408;DHT22;6268;48.188;17.134;2023-05-20T14:08:57;24.30;99.90
12408;DHT22;6268;48.188;17.134;2023-05-20T14:12:19;24.20;99.90
12408;DHT22;6268;48.188;17.134;2023-05-20T14:15:42;24.20;99.90
12408;DHT22;6268;48.188;17.134;2023-05-20T14:19:05;24.20;99.90
12408;DHT22;6268;48.188;17.134;2023-05-20T14:22:27;24.30;99.90
12408;DHT22;6268;48.188;17.134;2023-05-20T14:25:49;24.30;99.90
12408;DHT22;6268;48.188;17.134;2023-05-20T14:29:10;24.30;99.90
12408;DHT22;6268;48.188;17.134;2023-05-20T14:32:34;24.30;99.90
12408;DHT22;6268;48.188;17.134;2023-05-20T14:35:55;24.40;99.90
12408;DHT22;6268;48.188;17.134;2023-05-20T14:39:17;24.50;99.90
12408;DHT22;6268;48.188;17.134;2023-05-20T14:42:39;24.40;99.90
12408;DHT22;6268;48.188;17.134;2023-05-20T14:46:01;24.40;99.90
12408;DHT22;6268;48.188;17.134;2023-05-20T14:49:24;24.40;99.90
12408;DHT22;6268;48.188;17.134;2023-05-20T14:52:45;24.40;99.90
12408;DHT22;6268;48.188;17.134;2023-05-20T14:56:07;24.50;99.90
12408;DHT22;6268;48.188;17.134;2023-05-20T14:59:30;24.50;99.90
12408;DHT22;6268;48.188;17.134;2023-05-20T15:02:51;24.50;99.90
12408;DHT22;6268;48.188;17.134;2023-05-20T15:06:15;24.50;99.90
12408;DHT22;6268;48.188;17.134;2023-05-20T15:09:37;24.50;99.90
12408;DHT22;6268;48.188;17.134;2023-05-20T15:12:59;24.40;99.90
12408;DHT22;6268;48.188;17.134;2023-05-20T15:16:21;24.40;99.90
12408;DHT22;6268;48.188;17.134;2023-05-20T15:19:42;24.40;99.90
12408;DHT22;6268;48.188;17.134;2023-05-20T15:23:05;24.40;99.90
12408;DHT22;6268;48.188;17.134;2023-05-20T15:26:28;24.40;99.90
12408;DHT22;6268;48.188;17.134;2023-05-20T15:29:50;24.40;99.90
12408;DHT22;6268;48.188;17.134;2023-05-20T15:33:11;24.30;99.90
12408;DHT22;6268;48.188;17.134;2023-05-20T15:36:33;24.30;99.90
12408;DHT22;6268;48.188;17.134;2023-05-20T15:39:55;24.30;99.90
12408;DHT22;6268;48.188;17.134;2023-05-20T15:43:17;24.20;99.90
12408;DHT22;6268;48.188;17.134;2023-05-20T15:46:39;24.20;99.90
12408;DHT22;6268;48.188;17.134;2023-05-20T15:49:58;24.10;99.90
12408;DHT22;6268;48.188;17.134;2023-05-20T15:53:43;24.10;99.90
12408;DHT22;6268;48.188;17.134;2023-05-20T15:57:18;24.10;99.90
12408;DHT22;6268;48.188;17.134;2023-05-20T16:00:39;24.10;99.90
12408;DHT22;6268;48.188;17.134;2023-05-20T16:04:00;24.10;99.90
12408;DHT22;6268;48.188;17.134;2023-05-20T16:07:22;24.20;99.90
12408;DHT22;6268;48.188;17.134;2023-05-20T16:10:43;24.20;99.90
12408;DHT22;6268;48.188;17.134;2023-05-20T16:14:06;24.20;99.90
12408;DHT22;6268;48.188;17.134;2023-05-20T16:17:27;24.10;99.90
12408;DHT22;6268;48.188;17.134;2023-05-20T16:20:49;24.10;99.90
12408;DHT22;6268;48.188;17.134;2023-05-20T16:24:11;24.20;99.90
12408;DHT22;6268;48.188;17.134;2023-05-20T16:27:32;24.20;99.90
12408;DHT22;6268;48.188;17.134;2023-05-20T16:30:55;24.20;99.90
12408;DHT22;6268;48.188;17.134;2023-05-20T16:34:16;24.20;99.90
12408;DHT22;6268;48.188;17.134;2023-05-20T16:37:40;24.00;99.90
12408;DHT22;6268;48.188;17.134;2023-05-20T16:41:01;23.70;99.90
12408;DHT22;6268;48.188;17.134;2023-05-20T16:44:22;23.40;99.90
12408;DHT22;6268;48.188;17.134;2023-05-20T16:47:45;23.30;99.90
12408;DHT22;6268;48.188;17.134;2023-05-20T16:51:07;23.30;99.90
12408;DHT22;6268;48.188;17.134;2023-05-20T16:54:28;23.20;99.90
12408;DHT22;6268;48.188;17.134;2023-05-20T16:57:50;23.30;99.90
12408;DHT22;6268;48.188;17.134;2023-05-20T17:01:11;23.20;99.90
12408;DHT22;6268;48.188;17.134;2023-05-20T17:04:34;23.30;99.90
12408;DHT22;6268;48.188;17.134;2023-05-20T17:07:55;23.30;99.90
12408;DHT22;6268;48.188;17.134;2023-05-20T17:11:17;23.30;99.90
12408;DHT22;6268;48.188;17.134;2023-05-20T17:14:38;23.40;99.90
12408;DHT22;6268;48.188;17.134;2023-05-20T17:18:03;23.40;99.90
12408;DHT22;6268;48.188;17.134;2023-05-20T17:21:26;23.30;99.90
12408;DHT22;6268;48.188;17.134;2023-05-20T17:24:47;23.30;99.90
12408;DHT22;6268;48.188;17.134;2023-05-20T17:28:07;23.20;99.90
12408;DHT22;6268;48.188;17.134;2023-05-20T17:31:28;23.20;99.90
12408;DHT22;6268;48.188;17.134;2023-05-20T17:34:50;23.10;99.90
12408;DHT22;6268;48.188;17.134;2023-05-20T17:38:13;23.00;99.90
12408;DHT22;6268;48.188;17.134;2023-05-20T17:41:35;22.90;99.90
12408;DHT22;6268;48.188;17.134;2023-05-20T17:44:57;22.80;99.90
12408;DHT22;6268;48.188;17.134;2023-05-20T17:48:18;22.70;99.90
12408;DHT22;6268;48.188;17.134;2023-05-20T17:51:40;22.60;99.90
12408;DHT22;6268;48.188;17.134;2023-05-20T17:55:03;22.50;99.90
12408;DHT22;6268;48.188;17.134;2023-05-20T17:58:24;22.50;99.90
12408;DHT22;6268;48.188;17.134;2023-05-20T18:01:45;22.40;99.90
12408;DHT22;6268;48.188;17.134;2023-05-20T18:05:07;22.40;99.90
12408;DHT22;6268;48.188;17.134;2023-05-20T18:08:31;22.20;99.90
12408;DHT22;6268;48.188;17.134;2023-05-20T18:11:54;22.20;99.90
12408;DHT22;6268;48.188;17.134;2023-05-20T18:15:15;22.10;99.90
12408;DHT22;6268;48.188;17.134;2023-05-20T18:18:37;22.10;99.90
12408;DHT22;6268;48.188;17.134;2023-05-20T18:21:59;21.90;99.90
12408;DHT22;6268;48.188;17.134;2023-05-20T18:25:24;21.80;99.90
12408;DHT22;6268;48.188;17.134;2023-05-20T18:28:47;21.70;99.90
12408;DHT22;6268;48.188;17.134;2023-05-20T18:32:09;21.60;99.90
12408;DHT22;6268;48.188;17.134;2023-05-20T18:35:30;21.50;99.90
12408;DHT22;6268;48.188;17.134;2023-05-20T18:38:53;21.50;99.90
12408;DHT22;6268;48.188;17.134;2023-05-20T18:42:14;21.30;99.90
12408;DHT22;6268;48.188;17.134;2023-05-20T18:45:37;21.30;99.90
12408;DHT22;6268;48.188;17.134;2023-05-20T18:48:59;21.30;99.90
12408;DHT22;6268;48.188;17.134;2023-05-20T18:52:21;21.20;99.90
12408;DHT22;6268;48.188;17.134;2023-05-20T18:55:45;21.20;99.90
12408;DHT22;6268;48.188;17.134;2023-05-20T18:59:05;21.20;99.90
12408;DHT22;6268;48.188;17.134;2023-05-20T19:02:29;21.00;99.90
12408;DHT22;6268;48.188;17.134;2023-05-20T19:05:51;21.00;99.90
12408;DHT22;6268;48.188;17.134;2023-05-20T19:09:12;21.00;99.90
12408;DHT22;6268;48.188;17.134;2023-05-20T19:12:34;20.90;99.90
12408;DHT22;6268;48.188;17.134;2023-05-20T19:15:56;20.70;99.90
12408;DHT22;6268;48.188;17.134;2023-05-20T19:19:19;20.50;99.90
12408;DHT22;6268;48.188;17.134;2023-05-20T19:22:40;20.50;99.90
12408;DHT22;6268;48.188;17.134;2023-05-20T19:26:02;20.50;99.90
12408;DHT22;6268;48.188;17.134;2023-05-20T19:29:23;20.60;99.90
12408;DHT22;6268;48.188;17.134;2023-05-20T19:32:45;20.50;99.90
12408;DHT22;6268;48.188;17.134;2023-05-20T19:36:07;20.40;99.90
12408;DHT22;6268;48.188;17.134;2023-05-20T19:39:29;20.10;99.90
12408;DHT22;6268;48.188;17.134;2023-05-20T19:42:50;20.10;99.90
12408;DHT22;6268;48.188;17.134;2023-05-20T19:46:11;20.10;99.90
12408;DHT22;6268;48.188;17.134;2023-05-20T19:49:33;20.10;99.90
12408;DHT22;6268;48.188;17.134;2023-05-20T19:52:56;20.20;99.90
12408;DHT22;6268;48.188;17.134;2023-05-20T19:56:18;20.30;99.90
12408;DHT22;6268;48.188;17.134;2023-05-20T19:59:39;20.20;99.90
12408;DHT22;6268;48.188;17.134;2023-05-20T20:03:01;20.20;99.90
12408;DHT22;6268;48.188;17.134;2023-05-20T20:06:23;20.20;99.90
12408;DHT22;6268;48.188;17.134;2023-05-20T20:09:46;20.10;99.90
12408;DHT22;6268;48.188;17.134;2023-05-20T20:13:07;20.20;99.90
12408;DHT22;6268;48.188;17.134;2023-05-20T20:16:29;20.20;99.90
12408;DHT22;6268;48.188;17.134;2023-05-20T20:19:50;20.20;99.90
12408;DHT22;6268;48.188;17.134;2023-05-20T20:23:12;20.20;99.90
12408;DHT22;6268;48.188;17.134;2023-05-20T20:26:35;20.10;99.90
12408;DHT22;6268;48.188;17.134;2023-05-20T20:29:56;19.90;99.90
12408;DHT22;6268;48.188;17.134;2023-05-20T20:33:17;19.90;99.90
12408;DHT22;6268;48.188;17.134;2023-05-20T20:36:39;19.80;99.90
12408;DHT22;6268;48.188;17.134;2023-05-20T20:40:01;19.70;99.90
12408;DHT22;6268;48.188;17.134;2023-05-20T20:43:26;19.60;99.90
12408;DHT22;6268;48.188;17.134;2023-05-20T20:46:49;19.60;99.90
12408;DHT22;6268;48.188;17.134;2023-05-20T20:50:11;19.50;99.90
12408;DHT22;6268;48.188;17.134;2023-05-20T20:53:32;19.40;99.90
12408;DHT22;6268;48.188;17.134;2023-05-20T20:56:53;19.50;99.90
12408;DHT22;6268;48.188;17.134;2023-05-20T21:00:17;19.40;99.90
12408;DHT22;6268;48.188;17.134;2023-05-20T21:03:38;19.40;99.90
12408;DHT22;6268;48.188;17.134;2023-05-20T21:06:59;19.50;99.90
12408;DHT22;6268;48.188;17.134;2023-05-20T21:10:24;19.50;99.90
12408;DHT22;6268;48.188;17.134;2023-05-20T21:13:48;19.50;99.90
12408;DHT22;6268;48.188;17.134;2023-05-20T21:17:11;19.50;99.90
12408;DHT22;6268;48.188;17.134;2023-05-20T21:20:33;19.30;99.90
12408;DHT22;6268;48.188;17.134;2023-05-20T21:23:54;19.20;99.90